sensor_id;sensor_type;location;lat;lon;timestamp;temperature;humidity
29721;DHT22;23665;51.044;3.748;2022-08-21T00:00:54;18.50;99.90
29721;DHT22;23665;51.044;3.748;2022-08-21T00:03:20;18.50;99.90
29721;DHT22;23665;51.044;3.748;2022-08-21T00:05:49;18.40;99.90
29721;DHT22;23665;51.044;3.748;2022-08-21T00:08:16;18.30;99.90
29721;DHT22;23665;51.044;3.748;2022-08-21T00:10:44;18.40;99.90
29721;DHT22;23665;51.044;3.748;2022-08-21T00:13:11;18.40;99.90
29721;DHT22;23665;51.044;3.748;2022-08-21T00:15:38;18.40;99.90
29721;DHT22;23665;51.044;3.748;2022-08-21T00:18:06;18.40;99.90
29721;DHT22;23665;51.044;3.748;2022-08-21T00:20:34;18.40;99.90
29721;DHT22;23665;51.044;3.748;2022-08-21T00:22:59;18.30;99.90
29721;DHT22;23665;51.044;3.748;2022-08-21T00:25:26;18.20;99.90
29721;DHT22;23665;51.044;3.748;2022-08-21T00:27:53;18.20;99.90
29721;DHT22;23665;51.044;3.748;2022-08-21T00:30:20;18.30;99.90
29721;DHT22;23665;51.044;3.748;2022-08-21T00:32:46;18.30;99.90
29721;DHT22;23665;51.044;3.748;2022-08-21T00:35:14;18.30;99.90
29721;DHT22;23665;51.044;3.748;2022-08-21T00:37:41;18.30;99.90
29721;DHT22;23665;51.044;3.748;2022-08-21T00:40:11;18.30;99.90
29721;DHT22;23665;51.044;3.748;2022-08-21T00:42:37;18.20;99.90
29721;DHT22;23665;51.044;3.748;2022-08-21T00:45:05;18.20;99.90
29721;DHT22;23665;51.044;3.748;2022-08-21T00:47:31;18.20;99.90
29721;DHT22;23665;51.044;3.748;2022-08-21T00:49:57;18.20;99.90
29721;DHT22;23665;51.044;3.748;2022-08-21T00:52:25;18.20;99.90
29721;DHT22;23665;51.044;3.748;2022-08-21T00:54:54;18.30;99.90
29721;DHT22;23665;51.044;3.748;2022-08-21T00:57:26;18.10;99.90
29721;DHT22;23665;51.044;3.748;2022-08-21T00:59:56;18.10;99.90
29721;DHT22;23665;51.044;3.748;2022-08-21T01:02:24;18.00;99.90
29721;DHT22;23665;51.044;3.748;2022-08-21T01:04:51;17.90;99.90
29721;DHT22;23665;51.044;3.748;2022-08-21T01:07:16;17.80;99.90
29721;DHT22;23665;51.044;3.748;2022-08-21T01:09:42;17.80;99.90
29721;DHT22;23665;51.044;3.748;2022-08-21T01:12:09;17.70;99.90
29721;DHT22;23665;51.044;3.748;2022-08-21T01:14:36;17.70;99.90
29721;DHT22;23665;51.044;3.748;2022-08-21T01:17:03;17.70;99.90
29721;DHT22;23665;51.044;3.748;2022-08-21T01:19:30;17.80;99.90
29721;DHT22;23665;51.044;3.748;2022-08-21T01:21:56;17.80;99.90
29721;DHT22;23665;51.044;3.748;2022-08-21T01:24:22;17.80;99.90
29721;DHT22;23665;51.044;3.748;2022-08-21T01:26:49;17.90;99.90
29721;DHT22;23665;51.044;3.748;2022-08-21T01:29:38;17.90;99.90
29721;DHT22;23665;51.044;3.748;2022-08-21T01:32:09;17.80;99.90
29721;DHT22;23665;51.044;3.748;2022-08-21T01:34:37;17.80;99.90
29721;DHT22;23665;51.044;3.748;2022-08-21T01:37:04;17.60;99.90
29721;DHT22;23665;51.044;3.748;2022-08-21T01:39:30;17.70;99.90
29721;DHT22;23665;51.044;3.748;2022-08-21T01:41:55;17.70;99.90
29721;DHT22;23665;51.044;3.748;2022-08-21T01:44:22;17.70;99.90
29721;DHT22;23665;51.044;3.748;2022-08-21T01:46:48;17.70;99.90
29721;DHT22;23665;51.044;3.748;2022-08-21T01:49:14;17.60;99.90
29721;DHT22;23665;51.044;3.748;2022-08-21T01:51:41;17.60;99.90
29721;DHT22;23665;51.044;3.748;2022-08-21T01:54:07;17.60;99.90
29721;DHT22;23665;51.044;3.748;2022-08-21T01:56:40;17.60;99.90
29721;DHT22;23665;51.044;3.748;2022-08-21T01:59:07;17.70;99.90
29721;DHT22;23665;51.044;3.748;2022-08-21T02:01:33;17.80;99.90
29721;DHT22;23665;51.044;3.748;2022-08-21T02:03:58;17.70;99.90
29721;DHT22;23665;51.044;3.748;2022-08-21T02:06:25;17.80;99.90
29721;DHT22;23665;51.044;3.748;2022-08-21T02:08:51;17.70;99.90
29721;DHT22;23665;51.044;3.748;2022-08-21T02:11:17;17.70;99.90
29721;DHT22;23665;51.044;3.748;2022-08-21T02:13:43;17.60;99.90
29721;DHT22;23665;51.044;3.748;2022-08-21T02:16:09;17.70;99.90
29721;DHT22;23665;51.044;3.748;2022-08-21T02:18:35;17.60;99.90
29721;DHT22;23665;51.044;3.748;2022-08-21T02:21:01;17.40;99.90
29721;DHT22;23665;51.044;3.748;2022-08-21T02:23:27;17.40;99.90
29721;DHT22;23665;51.044;3.748;2022-08-21T02:25:56;17.30;99.90
29721;DHT22;23665;51.044;3.748;2022-08-21T02:28:22;17.20;99.90
29721;DHT22;23665;51.044;3.748;2022-08-21T02:30:49;17.20;99.90
29721;DHT22;23665;51.044;3.748;2022-08-21T02:33:15;17.20;99.90
29721;DHT22;23665;51.044;3.748;2022-08-21T02:35:41;17.20;99.90
29721;DHT22;23665;51.044;3.748;2022-08-21T02:38:09;17.10;99.90
29721;DHT22;23665;51.044;3.748;2022-08-21T02:40:37;17.10;99.90
29721;DHT22;23665;51.044;3.748;2022-08-21T02:43:05;17.10;99.90
29721;DHT22;23665;51.044;3.748;2022-08-21T02:45:32;17.20;99.90
29721;DHT22;23665;51.044;3.748;2022-08-21T02:48:08;17.10;99.90
29721;DHT22;23665;51.044;3.748;2022-08-21T02:50:44;17.10;99.90
29721;DHT22;23665;51.044;3.748;2022-08-21T02:53:11;17.20;99.90
29721;DHT22;23665;51.044;3.748;2022-08-21T02:55:40;17.30;99.90
29721;DHT22;23665;51.044;3.748;2022-08-21T02:58:07;17.20;99.90
29721;DHT22;23665;51.044;3.748;2022-08-21T03:00:34;17.00;99.90
29721;DHT22;23665;51.044;3.748;2022-08-21T03:03:00;17.00;99.90
29721;DHT22;23665;51.044;3.748;2022-08-21T03:05:28;17.10;99.90
29721;DHT22;23665;51.044;3.748;2022-08-21T03:07:57;17.00;99.90
29721;DHT22;23665;51.044;3.748;2022-08-21T03:10:24;17.20;99.90
29721;DHT22;23665;51.044;3.748;2022-08-21T03:12:50;17.10;99.90
29721;DHT22;23665;51.044;3.748;2022-08-21T03:15:19;17.00;99.90
29721;DHT22;23665;51.044;3.748;2022-08-21T03:17:45;16.90;99.90
29721;DHT22;23665;51.044;3.748;2022-08-21T03:20:12;16.90;99.90
29721;DHT22;23665;51.044;3.748;2022-08-21T03:22:39;16.80;99.90
29721;DHT22;23665;51.044;3.748;2022-08-21T03:25:06;16.80;99.90
29721;DHT22;23665;51.044;3.748;2022-08-21T03:27:32;16.80;99.90
29721;DHT22;23665;51.044;3.748;2022-08-21T03:29:59;16.80;99.90
29721;DHT22;23665;51.044;3.748;2022-08-21T03:32:25;16.80;99.90
29721;DHT22;23665;51.044;3.748;2022-08-21T03:34:50;16.90;99.90
29721;DHT22;23665;51.044;3.748;2022-08-21T03:37:16;16.80;99.90
29721;DHT22;23665;51.044;3.748;2022-08-21T03:39:43;16.70;99.90
29721;DHT22;23665;51.044;3.748;2022-08-21T03:42:10;16.70;99.90
29721;DHT22;23665;51.044;3.748;2022-08-21T03:44:37;16.80;99.90
29721;DHT22;23665;51.044;3.748;2022-08-21T03:47:03;16.80;99.90
29721;DHT22;23665;51.044;3.748;2022-08-21T03:49:29;16.70;99.90
29721;DHT22;23665;51.044;3.748;2022-08-21T03:51:55;16.70;99.90
29721;DHT22;23665;51.044;3.748;2022-08-21T03:54:20;16.70;99.90
29721;DHT22;23665;51.044;3.748;2022-08-21T03:56:46;16.70;99.90
29721;DHT22;23665;51.044;3.748;2022-08-21T03:59:13;16.70;99.90
29721;DHT22;23665;51.044;3.748;2022-08-21T04:01:39;16.70;99.90
29721;DHT22;23665;51.044;3.748;2022-08-21T04:04:05;16.80;99.90
29721;DHT22;23665;51.044;3.748;2022-08-21T04:06:32;16.70;99.90
29721;DHT22;23665;51.044;3.748;2022-08-21T04:08:57;16.80;99.90
29721;DHT22;23665;51.044;3.748;2022-08-21T04:11:23;16.70;99.90
29721;DHT22;23665;51.044;3.748;2022-08-21T04:13:49;16.70;99.90
29721;DHT22;23665;51.044;3.748;2022-08-21T04:16:15;16.80;99.90
29721;DHT22;23665;51.044;3.748;2022-08-21T04:18:41;16.70;99.90
29721;DHT22;23665;51.044;3.748;2022-08-21T04:21:10;16.70;99.90
29721;DHT22;23665;51.044;3.748;2022-08-21T04:23:36;16.60;99.90
29721;DHT22;23665;51.044;3.748;2022-08-21T04:26:02;16.60;99.90
29721;DHT22;23665;51.044;3.748;2022-08-21T04:28:28;16.70;99.90
29721;DHT22;23665;51.044;3.748;2022-08-21T04:30:54;16.70;99.90
29721;DHT22;23665;51.044;3.748;2022-08-21T04:33:21;16.60;99.90
29721;DHT22;23665;51.044;3.748;2022-08-21T04:35:48;16.80;99.90
29721;DHT22;23665;51.044;3.748;2022-08-21T04:38:14;16.80;99.90
29721;DHT22;23665;51.044;3.748;2022-08-21T04:40:40;16.80;99.90
29721;DHT22;23665;51.044;3.748;2022-08-21T04:43:08;16.60;99.90
29721;DHT22;23665;51.044;3.748;2022-08-21T04:45:37;16.60;99.90
29721;DHT22;23665;51.044;3.748;2022-08-21T04:48:05;16.60;99.90
29721;DHT22;23665;51.044;3.748;2022-08-21T04:50:43;16.70;99.90
29721;DHT22;23665;51.044;3.748;2022-08-21T04:53:18;16.60;99.90
29721;DHT22;23665;51.044;3.748;2022-08-21T04:55:46;16.60;99.90
29721;DHT22;23665;51.044;3.748;2022-08-21T04:58:15;16.50;99.90
29721;DHT22;23665;51.044;3.748;2022-08-21T05:00:43;16.60;99.90
29721;DHT22;23665;51.044;3.748;2022-08-21T05:03:09;16.60;99.90
29721;DHT22;23665;51.044;3.748;2022-08-21T05:05:37;16.60;99.90
29721;DHT22;23665;51.044;3.748;2022-08-21T05:08:04;16.70;99.90
29721;DHT22;23665;51.044;3.748;2022-08-21T05:10:30;16.70;99.90
29721;DHT22;23665;51.044;3.748;2022-08-21T05:12:57;16.60;99.90
29721;DHT22;23665;51.044;3.748;2022-08-21T05:15:23;16.60;99.90
29721;DHT22;23665;51.044;3.748;2022-08-21T05:17:49;16.70;99.90
29721;DHT22;23665;51.044;3.748;2022-08-21T05:20:16;16.70;99.90
29721;DHT22;23665;51.044;3.748;2022-08-21T05:22:42;16.70;99.90
29721;DHT22;23665;51.044;3.748;2022-08-21T05:25:08;16.80;99.90
29721;DHT22;23665;51.044;3.748;2022-08-21T05:27:34;17.00;99.90
29721;DHT22;23665;51.044;3.748;2022-08-21T05:30:00;17.10;99.90
29721;DHT22;23665;51.044;3.748;2022-08-21T05:32:26;17.20;99.90
29721;DHT22;23665;51.044;3.748;2022-08-21T05:34:53;17.00;99.90
29721;DHT22;23665;51.044;3.748;2022-08-21T05:37:20;16.90;99.90
29721;DHT22;23665;51.044;3.748;2022-08-21T05:39:46;17.00;99.90
29721;DHT22;23665;51.044;3.748;2022-08-21T05:42:12;16.90;99.90
29721;DHT22;23665;51.044;3.748;2022-08-21T05:44:37;17.10;99.90
29721;DHT22;23665;51.044;3.748;2022-08-21T05:47:05;17.10;99.90
29721;DHT22;23665;51.044;3.748;2022-08-21T05:49:31;17.10;99.90
29721;DHT22;23665;51.044;3.748;2022-08-21T05:51:57;17.20;99.90
29721;DHT22;23665;51.044;3.748;2022-08-21T05:54:23;17.40;99.90
29721;DHT22;23665;51.044;3.748;2022-08-21T05:56:48;17.40;99.90
29721;DHT22;23665;51.044;3.748;2022-08-21T05:59:14;17.30;99.90
29721;DHT22;23665;51.044;3.748;2022-08-21T06:01:40;17.40;99.90
29721;DHT22;23665;51.044;3.748;2022-08-21T06:04:06;17.40;99.90
29721;DHT22;23665;51.044;3.748;2022-08-21T06:06:33;17.50;99.90
29721;DHT22;23665;51.044;3.748;2022-08-21T06:08:59;17.60;99.90
29721;DHT22;23665;51.044;3.748;2022-08-21T06:11:24;17.70;99.90
29721;DHT22;23665;51.044;3.748;2022-08-21T06:13:50;17.80;99.90
29721;DHT22;23665;51.044;3.748;2022-08-21T06:16:16;17.80;99.90
29721;DHT22;23665;51.044;3.748;2022-08-21T06:18:43;17.90;99.90
29721;DHT22;23665;51.044;3.748;2022-08-21T06:21:10;18.00;99.90
29721;DHT22;23665;51.044;3.748;2022-08-21T06:23:38;18.10;99.90
29721;DHT22;23665;51.044;3.748;2022-08-21T06:26:05;18.30;99.90
29721;DHT22;23665;51.044;3.748;2022-08-21T06:28:31;18.50;99.90
29721;DHT22;23665;51.044;3.748;2022-08-21T06:30:57;18.50;99.90
29721;DHT22;23665;51.044;3.748;2022-08-21T06:33:23;18.60;99.90
29721;DHT22;23665;51.044;3.748;2022-08-21T06:35:49;18.70;99.90
29721;DHT22;23665;51.044;3.748;2022-08-21T06:38:15;18.80;99.90
29721;DHT22;23665;51.044;3.748;2022-08-21T06:40:40;18.80;99.90
29721;DHT22;23665;51.044;3.748;2022-08-21T06:43:13;19.00;99.90
29721;DHT22;23665;51.044;3.748;2022-08-21T06:45:39;19.10;99.90
29721;DHT22;23665;51.044;3.748;2022-08-21T06:48:05;19.10;99.90
29721;DHT22;23665;51.044;3.748;2022-08-21T06:50:33;19.30;99.90
29721;DHT22;23665;51.044;3.748;2022-08-21T06:53:06;19.50;99.90
29721;DHT22;23665;51.044;3.748;2022-08-21T06:55:32;19.70;99.90
29721;DHT22;23665;51.044;3.748;2022-08-21T06:57:58;19.80;99.90
29721;DHT22;23665;51.044;3.748;2022-08-21T07:00:25;20.10;99.90
29721;DHT22;23665;51.044;3.748;2022-08-21T07:02:51;20.30;99.90
29721;DHT22;23665;51.044;3.748;2022-08-21T07:05:17;20.30;99.90
29721;DHT22;23665;51.044;3.748;2022-08-21T07:07:42;20.30;99.90
29721;DHT22;23665;51.044;3.748;2022-08-21T07:10:08;20.50;99.90
29721;DHT22;23665;51.044;3.748;2022-08-21T07:12:34;20.50;99.90
29721;DHT22;23665;51.044;3.748;2022-08-21T07:15:00;20.70;99.90
29721;DHT22;23665;51.044;3.748;2022-08-21T07:17:26;20.80;99.90
29721;DHT22;23665;51.044;3.748;2022-08-21T07:19:52;21.10;99.90
29721;DHT22;23665;51.044;3.748;2022-08-21T07:22:19;21.30;99.90
29721;DHT22;23665;51.044;3.748;2022-08-21T07:24:46;21.50;99.90
29721;DHT22;23665;51.044;3.748;2022-08-21T07:27:12;21.50;99.90
29721;DHT22;23665;51.044;3.748;2022-08-21T07:29:37;21.60;99.90
29721;DHT22;23665;51.044;3.748;2022-08-21T07:32:04;21.50;99.90
29721;DHT22;23665;51.044;3.748;2022-08-21T07:34:30;21.40;99.90
29721;DHT22;23665;51.044;3.748;2022-08-21T07:36:56;21.30;99.90
29721;DHT22;23665;51.044;3.748;2022-08-21T07:39:22;21.40;99.90
29721;DHT22;23665;51.044;3.748;2022-08-21T07:41:48;21.40;99.90
29721;DHT22;23665;51.044;3.748;2022-08-21T07:44:14;21.40;99.90
29721;DHT22;23665;51.044;3.748;2022-08-21T07:46:39;21.40;99.90
29721;DHT22;23665;51.044;3.748;2022-08-21T07:49:05;21.50;99.90
29721;DHT22;23665;51.044;3.748;2022-08-21T07:51:32;21.70;99.90
29721;DHT22;23665;51.044;3.748;2022-08-21T07:53:59;22.00;99.90
29721;DHT22;23665;51.044;3.748;2022-08-21T07:56:27;22.10;99.90
29721;DHT22;23665;51.044;3.748;2022-08-21T07:58:53;22.00;99.90
29721;DHT22;23665;51.044;3.748;2022-08-21T08:01:19;22.30;99.90
29721;DHT22;23665;51.044;3.748;2022-08-21T08:03:45;22.40;99.90
29721;DHT22;23665;51.044;3.748;2022-08-21T08:06:11;22.60;99.90
29721;DHT22;23665;51.044;3.748;2022-08-21T08:08:41;22.70;99.90
29721;DHT22;23665;51.044;3.748;2022-08-21T08:11:09;22.50;99.90
29721;DHT22;23665;51.044;3.748;2022-08-21T08:13:46;22.40;99.90
29721;DHT22;23665;51.044;3.748;2022-08-21T08:16:12;22.40;99.90
29721;DHT22;23665;51.044;3.748;2022-08-21T08:18:38;22.30;99.90
29721;DHT22;23665;51.044;3.748;2022-08-21T08:21:04;22.50;99.90
29721;DHT22;23665;51.044;3.748;2022-08-21T08:23:31;22.40;99.90
29721;DHT22;23665;51.044;3.748;2022-08-21T08:25:58;22.70;99.90
29721;DHT22;23665;51.044;3.748;2022-08-21T08:28:24;22.80;99.90
29721;DHT22;23665;51.044;3.748;2022-08-21T08:30:50;22.90;99.90
29721;DHT22;23665;51.044;3.748;2022-08-21T08:33:17;23.10;99.90
29721;DHT22;23665;51.044;3.748;2022-08-21T08:35:46;23.40;99.90
29721;DHT22;23665;51.044;3.748;2022-08-21T08:38:13;23.60;99.90
29721;DHT22;23665;51.044;3.748;2022-08-21T08:43:33;23.50;99.90
29721;DHT22;23665;51.044;3.748;2022-08-21T08:46:04;23.50;99.90
29721;DHT22;23665;51.044;3.748;2022-08-21T08:48:47;23.60;99.90
29721;DHT22;23665;51.044;3.748;2022-08-21T08:51:25;23.60;99.90
29721;DHT22;23665;51.044;3.748;2022-08-21T08:53:59;23.60;99.90
29721;DHT22;23665;51.044;3.748;2022-08-21T08:56:31;23.90;99.90
29721;DHT22;23665;51.044;3.748;2022-08-21T08:59:02;23.90;99.90
29721;DHT22;23665;51.044;3.748;2022-08-21T09:01:28;24.10;99.90
29721;DHT22;23665;51.044;3.748;2022-08-21T09:03:54;24.30;99.90
29721;DHT22;23665;51.044;3.748;2022-08-21T09:09:02;24.50;99.90
29721;DHT22;23665;51.044;3.748;2022-08-21T09:11:45;24.30;99.90
29721;DHT22;23665;51.044;3.748;2022-08-21T09:17:12;23.80;99.90
29721;DHT22;23665;51.044;3.748;2022-08-21T09:19:56;23.80;99.90
29721;DHT22;23665;51.044;3.748;2022-08-21T09:22:30;23.80;99.90
29721;DHT22;23665;51.044;3.748;2022-08-21T09:25:18;23.70;99.90
29721;DHT22;23665;51.044;3.748;2022-08-21T09:27:45;23.80;99.90
29721;DHT22;23665;51.044;3.748;2022-08-21T09:30:12;23.90;99.90
29721;DHT22;23665;51.044;3.748;2022-08-21T09:32:38;23.80;99.90
29721;DHT22;23665;51.044;3.748;2022-08-21T09:37:44;24.10;99.90
29721;DHT22;23665;51.044;3.748;2022-08-21T09:40:37;24.30;99.90
29721;DHT22;23665;51.044;3.748;2022-08-21T09:43:19;24.50;99.90
29721;DHT22;23665;51.044;3.748;2022-08-21T09:45:47;24.70;99.90
29721;DHT22;23665;51.044;3.748;2022-08-21T09:48:22;24.80;99.90
29721;DHT22;23665;51.044;3.748;2022-08-21T09:50:49;25.00;99.90
29721;DHT22;23665;51.044;3.748;2022-08-21T09:53:19;25.30;99.90
29721;DHT22;23665;51.044;3.748;2022-08-21T09:55:54;25.40;99.90
29721;DHT22;23665;51.044;3.748;2022-08-21T09:58:41;25.40;99.90
29721;DHT22;23665;51.044;3.748;2022-08-21T10:01:17;25.30;99.90
29721;DHT22;23665;51.044;3.748;2022-08-21T10:03:43;25.30;99.90
29721;DHT22;23665;51.044;3.748;2022-08-21T10:06:10;25.30;99.90
29721;DHT22;23665;51.044;3.748;2022-08-21T10:08:45;25.40;99.90
29721;DHT22;23665;51.044;3.748;2022-08-21T10:11:16;25.50;99.90
29721;DHT22;23665;51.044;3.748;2022-08-21T10:14:04;25.70;99.90
29721;DHT22;23665;51.044;3.748;2022-08-21T10:17:08;25.90;99.90
29721;DHT22;23665;51.044;3.748;2022-08-21T10:30:19;26.00;99.90
29721;DHT22;23665;51.044;3.748;2022-08-21T10:33:09;26.10;99.90
29721;DHT22;23665;51.044;3.748;2022-08-21T10:35:47;26.00;99.90
29721;DHT22;23665;51.044;3.748;2022-08-21T10:46:47;26.80;99.90
29721;DHT22;23665;51.044;3.748;2022-08-21T10:49:32;26.90;99.90
29721;DHT22;23665;51.044;3.748;2022-08-21T10:52:33;26.90;99.90
29721;DHT22;23665;51.044;3.748;2022-08-21T10:55:25;26.90;99.90
29721;DHT22;23665;51.044;3.748;2022-08-21T10:57:56;26.70;99.90
29721;DHT22;23665;51.044;3.748;2022-08-21T11:00:26;26.60;99.90
29721;DHT22;23665;51.044;3.748;2022-08-21T11:05:57;26.90;99.90
29721;DHT22;23665;51.044;3.748;2022-08-21T11:08:39;27.00;99.90
29721;DHT22;23665;51.044;3.748;2022-08-21T11:11:18;27.30;99.90
29721;DHT22;23665;51.044;3.748;2022-08-21T11:13:54;27.20;99.90
29721;DHT22;23665;51.044;3.748;2022-08-21T11:19:15;26.80;99.90
29721;DHT22;23665;51.044;3.748;2022-08-21T11:21:58;26.90;99.90
29721;DHT22;23665;51.044;3.748;2022-08-21T11:27:19;27.30;99.90
29721;DHT22;23665;51.044;3.748;2022-08-21T11:29:55;27.70;99.90
29721;DHT22;23665;51.044;3.748;2022-08-21T11:38:28;28.70;99.90
29721;DHT22;23665;51.044;3.748;2022-08-21T11:41:08;28.60;99.90
29721;DHT22;23665;51.044;3.748;2022-08-21T11:43:41;28.40;99.70
29721;DHT22;23665;51.044;3.748;2022-08-21T11:52:04;27.30;99.90
29721;DHT22;23665;51.044;3.748;2022-08-21T11:54:55;27.60;99.90
29721;DHT22;23665;51.044;3.748;2022-08-21T11:57:33;27.90;99.90
29721;DHT22;23665;51.044;3.748;2022-08-21T12:00:07;28.20;99.90
29721;DHT22;23665;51.044;3.748;2022-08-21T12:02:41;28.30;99.90
29721;DHT22;23665;51.044;3.748;2022-08-21T12:05:11;28.20;99.90
29721;DHT22;23665;51.044;3.748;2022-08-21T12:07:43;28.10;99.90
29721;DHT22;23665;51.044;3.748;2022-08-21T12:10:13;27.80;99.90
29721;DHT22;23665;51.044;3.748;2022-08-21T12:12:42;27.70;99.90
29721;DHT22;23665;51.044;3.748;2022-08-21T12:15:26;27.60;99.90
29721;DHT22;23665;51.044;3.748;2022-08-21T12:17:59;27.40;99.90
29721;DHT22;23665;51.044;3.748;2022-08-21T12:20:44;27.00;99.90
29721;DHT22;23665;51.044;3.748;2022-08-21T12:23:31;26.80;99.90
29721;DHT22;23665;51.044;3.748;2022-08-21T12:26:18;26.50;99.90
29721;DHT22;23665;51.044;3.748;2022-08-21T12:28:47;26.20;99.90
29721;DHT22;23665;51.044;3.748;2022-08-21T12:31:22;26.10;99.90
29721;DHT22;23665;51.044;3.748;2022-08-21T12:33:58;25.80;99.90
29721;DHT22;23665;51.044;3.748;2022-08-21T12:36:38;26.00;99.90
29721;DHT22;23665;51.044;3.748;2022-08-21T12:39:12;26.10;99.90
29721;DHT22;23665;51.044;3.748;2022-08-21T12:41:56;26.20;99.90
29721;DHT22;23665;51.044;3.748;2022-08-21T12:44:35;26.20;99.90
29721;DHT22;23665;51.044;3.748;2022-08-21T12:47:11;26.30;99.90
29721;DHT22;23665;51.044;3.748;2022-08-21T12:50:00;26.40;99.90
29721;DHT22;23665;51.044;3.748;2022-08-21T12:52:34;26.60;99.90
29721;DHT22;23665;51.044;3.748;2022-08-21T12:55:00;26.70;99.90
29721;DHT22;23665;51.044;3.748;2022-08-21T12:57:28;26.50;99.90
29721;DHT22;23665;51.044;3.748;2022-08-21T12:59:59;26.30;99.90
29721;DHT22;23665;51.044;3.748;2022-08-21T13:02:39;26.40;99.90
29721;DHT22;23665;51.044;3.748;2022-08-21T13:05:13;26.30;99.90
29721;DHT22;23665;51.044;3.748;2022-08-21T13:07:44;26.40;99.90
29721;DHT22;23665;51.044;3.748;2022-08-21T13:10:20;26.50;99.90
29721;DHT22;23665;51.044;3.748;2022-08-21T13:12:47;26.70;99.90
29721;DHT22;23665;51.044;3.748;2022-08-21T13:15:13;26.90;99.90
29721;DHT22;23665;51.044;3.748;2022-08-21T13:17:42;27.20;99.90
29721;DHT22;23665;51.044;3.748;2022-08-21T13:20:21;27.50;99.90
29721;DHT22;23665;51.044;3.748;2022-08-21T13:22:48;27.80;99.90
29721;DHT22;23665;51.044;3.748;2022-08-21T13:25:19;28.10;99.90
29721;DHT22;23665;51.044;3.748;2022-08-21T13:28:11;28.20;99.90
29721;DHT22;23665;51.044;3.748;2022-08-21T13:30:51;28.30;99.90
29721;DHT22;23665;51.044;3.748;2022-08-21T13:33:19;28.50;99.90
29721;DHT22;23665;51.044;3.748;2022-08-21T13:35:47;28.50;99.90
29721;DHT22;23665;51.044;3.748;2022-08-21T13:38:13;28.40;99.90
29721;DHT22;23665;51.044;3.748;2022-08-21T13:43:18;28.20;99.90
29721;DHT22;23665;51.044;3.748;2022-08-21T13:45:51;28.00;99.90
29721;DHT22;23665;51.044;3.748;2022-08-21T13:48:18;28.00;99.90
29721;DHT22;23665;51.044;3.748;2022-08-21T13:50:45;27.40;99.90
29721;DHT22;23665;51.044;3.748;2022-08-21T13:53:29;27.50;99.90
29721;DHT22;23665;51.044;3.748;2022-08-21T13:55:56;27.30;99.90
29721;DHT22;23665;51.044;3.748;2022-08-21T13:58:27;27.20;99.90
29721;DHT22;23665;51.044;3.748;2022-08-21T14:00:55;27.00;99.90
29721;DHT22;23665;51.044;3.748;2022-08-21T14:03:42;26.90;99.90
29721;DHT22;23665;51.044;3.748;2022-08-21T14:06:20;27.00;99.90
29721;DHT22;23665;51.044;3.748;2022-08-21T14:08:50;27.00;99.90
29721;DHT22;23665;51.044;3.748;2022-08-21T14:11:17;26.80;99.90
29721;DHT22;23665;51.044;3.748;2022-08-21T14:13:56;27.00;99.90
29721;DHT22;23665;51.044;3.748;2022-08-21T14:16:25;27.00;99.90
29721;DHT22;23665;51.044;3.748;2022-08-21T14:21:37;26.80;99.90
29721;DHT22;23665;51.044;3.748;2022-08-21T14:26:29;26.80;99.90
29721;DHT22;23665;51.044;3.748;2022-08-21T14:28:59;26.50;99.90
29721;DHT22;23665;51.044;3.748;2022-08-21T14:31:29;26.60;99.90
29721;DHT22;23665;51.044;3.748;2022-08-21T14:33:55;26.60;99.90
29721;DHT22;23665;51.044;3.748;2022-08-21T14:36:21;26.70;99.90
29721;DHT22;23665;51.044;3.748;2022-08-21T14:38:47;26.70;99.90
29721;DHT22;23665;51.044;3.748;2022-08-21T14:41:18;26.70;99.90
29721;DHT22;23665;51.044;3.748;2022-08-21T14:43:45;26.20;99.90
29721;DHT22;23665;51.044;3.748;2022-08-21T14:46:21;26.20;99.90
29721;DHT22;23665;51.044;3.748;2022-08-21T14:48:48;26.50;99.90
29721;DHT22;23665;51.044;3.748;2022-08-21T14:51:15;26.50;99.90
29721;DHT22;23665;51.044;3.748;2022-08-21T14:53:41;26.60;99.90
29721;DHT22;23665;51.044;3.748;2022-08-21T14:56:07;26.70;99.90
29721;DHT22;23665;51.044;3.748;2022-08-21T14:58:53;26.70;99.90
29721;DHT22;23665;51.044;3.748;2022-08-21T15:01:22;26.60;99.90
29721;DHT22;23665;51.044;3.748;2022-08-21T15:03:48;26.60;99.90
29721;DHT22;23665;51.044;3.748;2022-08-21T15:06:15;26.60;99.90
29721;DHT22;23665;51.044;3.748;2022-08-21T15:08:42;26.60;99.90
29721;DHT22;23665;51.044;3.748;2022-08-21T15:11:11;26.70;99.90
29721;DHT22;23665;51.044;3.748;2022-08-21T15:13:38;26.80;99.90
29721;DHT22;23665;51.044;3.748;2022-08-21T15:16:04;26.80;99.90
29721;DHT22;23665;51.044;3.748;2022-08-21T15:18:31;26.90;99.90
29721;DHT22;23665;51.044;3.748;2022-08-21T15:20:57;26.80;99.90
29721;DHT22;23665;51.044;3.748;2022-08-21T15:23:23;26.70;99.90
29721;DHT22;23665;51.044;3.748;2022-08-21T15:25:49;26.80;99.90
29721;DHT22;23665;51.044;3.748;2022-08-21T15:28:16;26.90;99.90
29721;DHT22;23665;51.044;3.748;2022-08-21T15:30:43;27.10;99.90
29721;DHT22;23665;51.044;3.748;2022-08-21T15:33:09;27.10;99.90
29721;DHT22;23665;51.044;3.748;2022-08-21T15:35:35;27.30;99.90
29721;DHT22;23665;51.044;3.748;2022-08-21T15:38:03;27.20;99.90
29721;DHT22;23665;51.044;3.748;2022-08-21T15:40:29;27.50;99.90
29721;DHT22;23665;51.044;3.748;2022-08-21T15:42:59;27.80;99.90
29721;DHT22;23665;51.044;3.748;2022-08-21T15:45:26;28.00;99.90
29721;DHT22;23665;51.044;3.748;2022-08-21T15:47:52;28.10;99.90
29721;DHT22;23665;51.044;3.748;2022-08-21T15:50:19;27.50;99.90
29721;DHT22;23665;51.044;3.748;2022-08-21T15:52:45;27.40;99.90
29721;DHT22;23665;51.044;3.748;2022-08-21T15:55:12;27.70;99.90
29721;DHT22;23665;51.044;3.748;2022-08-21T15:57:43;27.60;99.90
29721;DHT22;23665;51.044;3.748;2022-08-21T16:00:19;27.20;99.90
29721;DHT22;23665;51.044;3.748;2022-08-21T16:02:50;27.20;99.90
29721;DHT22;23665;51.044;3.748;2022-08-21T16:05:17;27.30;99.90
29721;DHT22;23665;51.044;3.748;2022-08-21T16:07:45;27.30;99.90
29721;DHT22;23665;51.044;3.748;2022-08-21T16:10:12;27.40;99.90
29721;DHT22;23665;51.044;3.748;2022-08-21T16:12:42;27.60;99.90
29721;DHT22;23665;51.044;3.748;2022-08-21T16:15:11;27.50;99.90
29721;DHT22;23665;51.044;3.748;2022-08-21T16:17:39;27.70;99.90
29721;DHT22;23665;51.044;3.748;2022-08-21T16:20:08;27.90;99.90
29721;DHT22;23665;51.044;3.748;2022-08-21T16:22:35;27.90;99.90
29721;DHT22;23665;51.044;3.748;2022-08-21T16:25:01;28.10;99.90
29721;DHT22;23665;51.044;3.748;2022-08-21T16:27:27;28.30;99.90
29721;DHT22;23665;51.044;3.748;2022-08-21T16:29:53;28.40;99.90
29721;DHT22;23665;51.044;3.748;2022-08-21T16:32:18;28.10;99.90
29721;DHT22;23665;51.044;3.748;2022-08-21T16:34:47;28.10;99.90
29721;DHT22;23665;51.044;3.748;2022-08-21T16:37:14;27.80;99.90
29721;DHT22;23665;51.044;3.748;2022-08-21T16:39:40;27.80;99.90
29721;DHT22;23665;51.044;3.748;2022-08-21T16:42:06;27.40;99.90